sensor_id;sensor_type;location;lat;lon;timestamp;temperature;humidity
68943;DHT22;60852;52.190;4.422;2023-04-24T00:02:18;11.59;85.97
68943;DHT22;60852;52.190;4.422;2023-04-24T00:04:44;11.47;85.90
68943;DHT22;60852;52.190;4.422;2023-04-24T00:07:14;11.44;86.25
68943;DHT22;60852;52.190;4.422;2023-04-24T00:09:42;11.44;86.28
68943;DHT22;60852;52.190;4.422;2023-04-24T00:12:08;11.41;86.34
68943;DHT22;60852;52.190;4.422;2023-04-24T00:14:34;11.39;86.27
68943;DHT22;60852;52.190;4.422;2023-04-24T00:17:01;11.39;86.32
68943;DHT22;60852;52.190;4.422;2023-04-24T00:19:28;11.37;86.19
68943;DHT22;60852;52.190;4.422;2023-04-24T00:21:54;11.40;86.57
68943;DHT22;60852;52.190;4.422;2023-04-24T00:24:20;11.40;86.61
68943;DHT22;60852;52.190;4.422;2023-04-24T00:26:46;11.41;86.54
68943;DHT22;60852;52.190;4.422;2023-04-24T00:29:12;11.46;86.58
68943;DHT22;60852;52.190;4.422;2023-04-24T00:31:37;11.49;86.33
68943;DHT22;60852;52.190;4.422;2023-04-24T00:34:04;11.46;86.19
68943;DHT22;60852;52.190;4.422;2023-04-24T00:36:30;11.44;86.22
68943;DHT22;60852;52.190;4.422;2023-04-24T00:38:56;11.49;86.06
68943;DHT22;60852;52.190;4.422;2023-04-24T00:41:22;11.53;86.22
68943;DHT22;60852;52.190;4.422;2023-04-24T00:43:48;11.56;85.94
68943;DHT22;60852;52.190;4.422;2023-04-24T00:46:14;11.50;85.77
68943;DHT22;60852;52.190;4.422;2023-04-24T00:48:40;11.39;85.87
68943;DHT22;60852;52.190;4.422;2023-04-24T00:51:05;11.34;86.05
68943;DHT22;60852;52.190;4.422;2023-04-24T00:53:31;11.36;86.09
68943;DHT22;60852;52.190;4.422;2023-04-24T00:55:57;11.41;86.14
68943;DHT22;60852;52.190;4.422;2023-04-24T00:58:23;11.43;85.87
68943;DHT22;60852;52.190;4.422;2023-04-24T01:00:51;11.39;85.68
68943;DHT22;60852;52.190;4.422;2023-04-24T01:03:20;11.40;86.06
68943;DHT22;60852;52.190;4.422;2023-04-24T01:05:47;11.44;86.07
68943;DHT22;60852;52.190;4.422;2023-04-24T01:08:14;11.50;85.90
68943;DHT22;60852;52.190;4.422;2023-04-24T01:10:41;11.53;85.95
68943;DHT22;60852;52.190;4.422;2023-04-24T01:13:08;11.50;85.75
68943;DHT22;60852;52.190;4.422;2023-04-24T01:15:34;11.53;85.77
68943;DHT22;60852;52.190;4.422;2023-04-24T01:18:00;11.57;85.75
68943;DHT22;60852;52.190;4.422;2023-04-24T01:20:25;11.60;85.67
68943;DHT22;60852;52.190;4.422;2023-04-24T01:22:52;11.56;85.55
68943;DHT22;60852;52.190;4.422;2023-04-24T01:25:18;11.53;85.59
68943;DHT22;60852;52.190;4.422;2023-04-24T01:27:43;11.57;85.70
68943;DHT22;60852;52.190;4.422;2023-04-24T01:30:10;11.56;85.55
68943;DHT22;60852;52.190;4.422;2023-04-24T01:32:37;11.53;85.51
68943;DHT22;60852;52.190;4.422;2023-04-24T01:35:03;11.49;85.53
68943;DHT22;60852;52.190;4.422;2023-04-24T01:37:29;11.49;85.38
68943;DHT22;60852;52.190;4.422;2023-04-24T01:39:55;11.53;85.54
68943;DHT22;60852;52.190;4.422;2023-04-24T01:42:21;11.49;85.14
68943;DHT22;60852;52.190;4.422;2023-04-24T01:44:46;11.49;85.60
68943;DHT22;60852;52.190;4.422;2023-04-24T01:47:13;11.49;85.37
68943;DHT22;60852;52.190;4.422;2023-04-24T01:49:39;11.39;85.42
68943;DHT22;60852;52.190;4.422;2023-04-24T01:52:04;11.43;85.59
68943;DHT22;60852;52.190;4.422;2023-04-24T01:54:30;11.33;85.45
68943;DHT22;60852;52.190;4.422;2023-04-24T01:56:56;11.29;85.83
68943;DHT22;60852;52.190;4.422;2023-04-24T01:59:21;11.23;85.91
68943;DHT22;60852;52.190;4.422;2023-04-24T02:01:48;11.31;86.19
68943;DHT22;60852;52.190;4.422;2023-04-24T02:04:13;11.34;86.00
68943;DHT22;60852;52.190;4.422;2023-04-24T02:06:40;11.26;85.65
68943;DHT22;60852;52.190;4.422;2023-04-24T02:09:06;11.20;86.08
68943;DHT22;60852;52.190;4.422;2023-04-24T02:11:32;11.12;86.03
68943;DHT22;60852;52.190;4.422;2023-04-24T02:13:57;11.12;86.38
68943;DHT22;60852;52.190;4.422;2023-04-24T02:16:23;11.15;86.38
68943;DHT22;60852;52.190;4.422;2023-04-24T02:18:48;11.16;86.27
68943;DHT22;60852;52.190;4.422;2023-04-24T02:21:14;11.10;86.44
68943;DHT22;60852;52.190;4.422;2023-04-24T02:23:40;11.05;86.81
68943;DHT22;60852;52.190;4.422;2023-04-24T02:26:05;11.15;86.71
68943;DHT22;60852;52.190;4.422;2023-04-24T02:28:31;11.26;86.66
68943;DHT22;60852;52.190;4.422;2023-04-24T02:30:56;11.34;86.50
68943;DHT22;60852;52.190;4.422;2023-04-24T02:33:22;11.41;86.38
68943;DHT22;60852;52.190;4.422;2023-04-24T02:35:47;11.50;86.40
68943;DHT22;60852;52.190;4.422;2023-04-24T02:38:12;11.59;86.12
68943;DHT22;60852;52.190;4.422;2023-04-24T02:40:38;11.54;85.85
68943;DHT22;60852;52.190;4.422;2023-04-24T02:43:03;11.51;86.06
68943;DHT22;60852;52.190;4.422;2023-04-24T02:45:29;11.57;86.00
68943;DHT22;60852;52.190;4.422;2023-04-24T02:47:54;11.60;85.96
68943;DHT22;60852;52.190;4.422;2023-04-24T02:50:20;11.63;85.86
68943;DHT22;60852;52.190;4.422;2023-04-24T02:52:45;11.63;85.70
68943;DHT22;60852;52.190;4.422;2023-04-24T02:55:11;11.66;85.68
68943;DHT22;60852;52.190;4.422;2023-04-24T02:57:36;11.71;85.69
68943;DHT22;60852;52.190;4.422;2023-04-24T03:00:02;11.73;85.52
68943;DHT22;60852;52.190;4.422;2023-04-24T03:02:28;11.73;85.60
68943;DHT22;60852;52.190;4.422;2023-04-24T03:04:53;11.75;85.40
68943;DHT22;60852;52.190;4.422;2023-04-24T03:07:20;11.74;85.32
68943;DHT22;60852;52.190;4.422;2023-04-24T03:09:46;11.75;85.20
68943;DHT22;60852;52.190;4.422;2023-04-24T03:12:12;11.74;85.11
68943;DHT22;60852;52.190;4.422;2023-04-24T03:14:37;11.70;84.78
68943;DHT22;60852;52.190;4.422;2023-04-24T03:17:03;11.66;84.79
68943;DHT22;60852;52.190;4.422;2023-04-24T03:19:28;11.68;84.73
68943;DHT22;60852;52.190;4.422;2023-04-24T03:21:54;11.68;84.58
68943;DHT22;60852;52.190;4.422;2023-04-24T03:24:20;11.71;84.54
68943;DHT22;60852;52.190;4.422;2023-04-24T03:26:45;11.73;84.36
68943;DHT22;60852;52.190;4.422;2023-04-24T03:29:11;11.68;84.08
68943;DHT22;60852;52.190;4.422;2023-04-24T03:31:36;11.73;84.01
68943;DHT22;60852;52.190;4.422;2023-04-24T03:34:02;11.67;83.56
68943;DHT22;60852;52.190;4.422;2023-04-24T03:36:27;11.66;83.35
68943;DHT22;60852;52.190;4.422;2023-04-24T03:38:52;11.59;83.34
68943;DHT22;60852;52.190;4.422;2023-04-24T03:41:18;11.56;83.23
68943;DHT22;60852;52.190;4.422;2023-04-24T03:43:44;11.57;83.18
68943;DHT22;60852;52.190;4.422;2023-04-24T03:46:10;11.47;83.00
68943;DHT22;60852;52.190;4.422;2023-04-24T03:48:35;11.41;83.21
68943;DHT22;60852;52.190;4.422;2023-04-24T03:51:01;11.31;83.23
68943;DHT22;60852;52.190;4.422;2023-04-24T03:53:26;11.33;83.54
68943;DHT22;60852;52.190;4.422;2023-04-24T03:55:52;11.24;83.45
68943;DHT22;60852;52.190;4.422;2023-04-24T03:58:18;11.19;84.44
68943;DHT22;60852;52.190;4.422;2023-04-24T04:00:44;11.15;85.26
68943;DHT22;60852;52.190;4.422;2023-04-24T04:03:09;11.05;86.19
68943;DHT22;60852;52.190;4.422;2023-04-24T04:05:35;10.99;86.40
68943;DHT22;60852;52.190;4.422;2023-04-24T04:08:00;10.88;87.17
68943;DHT22;60852;52.190;4.422;2023-04-24T04:10:26;10.79;87.62
68943;DHT22;60852;52.190;4.422;2023-04-24T04:12:51;10.64;87.65
68943;DHT22;60852;52.190;4.422;2023-04-24T04:15:17;10.60;88.32
68943;DHT22;60852;52.190;4.422;2023-04-24T04:17:42;10.52;88.08
68943;DHT22;60852;52.190;4.422;2023-04-24T04:20:08;10.44;88.23
68943;DHT22;60852;52.190;4.422;2023-04-24T04:22:37;10.45;88.36
68943;DHT22;60852;52.190;4.422;2023-04-24T04:25:03;10.37;88.44
68943;DHT22;60852;52.190;4.422;2023-04-24T04:27:29;10.38;88.55
68943;DHT22;60852;52.190;4.422;2023-04-24T04:30:01;10.37;88.39
68943;DHT22;60852;52.190;4.422;2023-04-24T04:32:31;10.24;88.17
68943;DHT22;60852;52.190;4.422;2023-04-24T04:34:58;10.14;88.71
68943;DHT22;60852;52.190;4.422;2023-04-24T04:37:34;10.12;88.86
68943;DHT22;60852;52.190;4.422;2023-04-24T04:40:00;10.17;88.85
68943;DHT22;60852;52.190;4.422;2023-04-24T04:42:26;10.13;88.67
68943;DHT22;60852;52.190;4.422;2023-04-24T04:44:54;10.04;88.56
68943;DHT22;60852;52.190;4.422;2023-04-24T04:47:22;10.06;88.52
68943;DHT22;60852;52.190;4.422;2023-04-24T04:49:48;10.04;88.79
68943;DHT22;60852;52.190;4.422;2023-04-24T04:52:14;10.02;88.47
68943;DHT22;60852;52.190;4.422;2023-04-24T04:54:39;9.94;88.32
68943;DHT22;60852;52.190;4.422;2023-04-24T04:57:05;9.89;88.41
68943;DHT22;60852;52.190;4.422;2023-04-24T04:59:31;9.83;88.52
68943;DHT22;60852;52.190;4.422;2023-04-24T05:01:56;9.73;88.20
68943;DHT22;60852;52.190;4.422;2023-04-24T05:04:22;9.72;88.29
68943;DHT22;60852;52.190;4.422;2023-04-24T05:06:47;9.73;88.18
68943;DHT22;60852;52.190;4.422;2023-04-24T05:09:13;9.71;88.12
68943;DHT22;60852;52.190;4.422;2023-04-24T05:11:38;9.76;88.29
68943;DHT22;60852;52.190;4.422;2023-04-24T05:14:03;9.76;87.88
68943;DHT22;60852;52.190;4.422;2023-04-24T05:16:29;9.82;87.99
68943;DHT22;60852;52.190;4.422;2023-04-24T05:18:55;9.76;87.52
68943;DHT22;60852;52.190;4.422;2023-04-24T05:21:21;9.75;87.68
68943;DHT22;60852;52.190;4.422;2023-04-24T05:23:46;9.87;87.52
68943;DHT22;60852;52.190;4.422;2023-04-24T05:26:13;9.81;86.85
68943;DHT22;60852;52.190;4.422;2023-04-24T05:28:38;9.73;86.38
68943;DHT22;60852;52.190;4.422;2023-04-24T05:31:04;9.68;85.93
68943;DHT22;60852;52.190;4.422;2023-04-24T05:33:29;9.62;86.21
68943;DHT22;60852;52.190;4.422;2023-04-24T05:35:55;9.68;86.22
68943;DHT22;60852;52.190;4.422;2023-04-24T05:38:21;9.75;86.25
68943;DHT22;60852;52.190;4.422;2023-04-24T05:40:46;9.68;85.43
68943;DHT22;60852;52.190;4.422;2023-04-24T05:43:13;9.75;85.97
68943;DHT22;60852;52.190;4.422;2023-04-24T05:45:38;9.89;86.22
68943;DHT22;60852;52.190;4.422;2023-04-24T05:48:04;9.89;85.90
68943;DHT22;60852;52.190;4.422;2023-04-24T05:50:31;9.85;86.15
68943;DHT22;60852;52.190;4.422;2023-04-24T05:52:56;9.90;86.26
68943;DHT22;60852;52.190;4.422;2023-04-24T05:55:27;9.85;85.77
68943;DHT22;60852;52.190;4.422;2023-04-24T05:57:53;9.82;85.68
68943;DHT22;60852;52.190;4.422;2023-04-24T06:00:18;9.81;85.70
68943;DHT22;60852;52.190;4.422;2023-04-24T06:02:45;9.90;85.66
68943;DHT22;60852;52.190;4.422;2023-04-24T06:05:11;9.90;85.68
68943;DHT22;60852;52.190;4.422;2023-04-24T06:07:37;9.87;85.63
68943;DHT22;60852;52.190;4.422;2023-04-24T06:10:03;9.90;85.29
68943;DHT22;60852;52.190;4.422;2023-04-24T06:12:28;9.93;85.24
68943;DHT22;60852;52.190;4.422;2023-04-24T06:14:54;9.97;84.83
68943;DHT22;60852;52.190;4.422;2023-04-24T06:17:21;9.92;84.72
68943;DHT22;60852;52.190;4.422;2023-04-24T06:19:46;9.96;84.89
68943;DHT22;60852;52.190;4.422;2023-04-24T06:22:12;9.94;84.40
68943;DHT22;60852;52.190;4.422;2023-04-24T06:24:37;9.90;83.92
68943;DHT22;60852;52.190;4.422;2023-04-24T06:27:03;9.85;83.66
68943;DHT22;60852;52.190;4.422;2023-04-24T06:29:28;9.94;84.13
68943;DHT22;60852;52.190;4.422;2023-04-24T06:31:54;10.03;84.24
68943;DHT22;60852;52.190;4.422;2023-04-24T06:34:19;10.03;83.92
68943;DHT22;60852;52.190;4.422;2023-04-24T06:36:46;10.04;83.55
68943;DHT22;60852;52.190;4.422;2023-04-24T06:39:11;10.03;83.07
68943;DHT22;60852;52.190;4.422;2023-04-24T06:41:37;10.02;82.90
68943;DHT22;60852;52.190;4.422;2023-04-24T06:44:02;9.96;83.91
68943;DHT22;60852;52.190;4.422;2023-04-24T06:46:28;9.85;84.49
68943;DHT22;60852;52.190;4.422;2023-04-24T06:48:54;9.87;85.16
68943;DHT22;60852;52.190;4.422;2023-04-24T06:51:22;9.89;85.21
68943;DHT22;60852;52.190;4.422;2023-04-24T06:53:48;9.78;84.82
68943;DHT22;60852;52.190;4.422;2023-04-24T06:56:15;9.75;84.90
68943;DHT22;60852;52.190;4.422;2023-04-24T06:58:40;9.68;84.61
68943;DHT22;60852;52.190;4.422;2023-04-24T07:01:06;9.72;84.13
68943;DHT22;60852;52.190;4.422;2023-04-24T07:03:31;9.72;83.34
68943;DHT22;60852;52.190;4.422;2023-04-24T07:05:57;9.85;82.58
68943;DHT22;60852;52.190;4.422;2023-04-24T07:08:23;9.81;81.70
68943;DHT22;60852;52.190;4.422;2023-04-24T07:10:49;9.81;80.50
68943;DHT22;60852;52.190;4.422;2023-04-24T07:13:16;9.87;80.70
68943;DHT22;60852;52.190;4.422;2023-04-24T07:15:43;9.83;79.55
68943;DHT22;60852;52.190;4.422;2023-04-24T07:18:08;9.93;80.08
68943;DHT22;60852;52.190;4.422;2023-04-24T07:20:34;9.94;78.96
68943;DHT22;60852;52.190;4.422;2023-04-24T07:23:00;10.04;79.96
68943;DHT22;60852;52.190;4.422;2023-04-24T07:25:25;10.13;80.16
68943;DHT22;60852;52.190;4.422;2023-04-24T07:27:51;10.12;79.35
68943;DHT22;60852;52.190;4.422;2023-04-24T07:30:16;10.12;78.55
68943;DHT22;60852;52.190;4.422;2023-04-24T07:32:41;10.09;78.52
68943;DHT22;60852;52.190;4.422;2023-04-24T07:35:07;10.03;77.47
68943;DHT22;60852;52.190;4.422;2023-04-24T07:37:35;10.06;78.04
68943;DHT22;60852;52.190;4.422;2023-04-24T07:40:00;10.10;77.96
68943;DHT22;60852;52.190;4.422;2023-04-24T07:42:26;10.00;77.77
68943;DHT22;60852;52.190;4.422;2023-04-24T07:44:51;10.02;78.39
68943;DHT22;60852;52.190;4.422;2023-04-24T07:47:17;9.97;78.47
68943;DHT22;60852;52.190;4.422;2023-04-24T07:49:42;10.13;78.81
68943;DHT22;60852;52.190;4.422;2023-04-24T07:52:08;10.16;77.19
68943;DHT22;60852;52.190;4.422;2023-04-24T07:54:34;10.21;76.48
68943;DHT22;60852;52.190;4.422;2023-04-24T07:56:59;10.14;75.05
68943;DHT22;60852;52.190;4.422;2023-04-24T07:59:26;10.09;74.47
68943;DHT22;60852;52.190;4.422;2023-04-24T08:01:51;10.17;74.49
68943;DHT22;60852;52.190;4.422;2023-04-24T08:04:16;10.18;74.84
68943;DHT22;60852;52.190;4.422;2023-04-24T08:06:43;10.20;74.05
68943;DHT22;60852;52.190;4.422;2023-04-24T08:09:09;10.30;74.30
68943;DHT22;60852;52.190;4.422;2023-04-24T08:11:34;10.38;73.96
68943;DHT22;60852;52.190;4.422;2023-04-24T08:14:00;10.52;74.80
68943;DHT22;60852;52.190;4.422;2023-04-24T08:16:25;10.57;73.41
68943;DHT22;60852;52.190;4.422;2023-04-24T08:18:51;10.48;72.88
68943;DHT22;60852;52.190;4.422;2023-04-24T08:21:17;10.42;72.09
68943;DHT22;60852;52.190;4.422;2023-04-24T08:23:44;10.37;71.18
68943;DHT22;60852;52.190;4.422;2023-04-24T08:26:11;10.29;70.10
68943;DHT22;60852;52.190;4.422;2023-04-24T08:28:37;10.30;71.09
68943;DHT22;60852;52.190;4.422;2023-04-24T08:31:03;10.33;70.59
68943;DHT22;60852;52.190;4.422;2023-04-24T08:33:28;10.36;71.43
68943;DHT22;60852;52.190;4.422;2023-04-24T08:36:01;10.44;72.26
68943;DHT22;60852;52.190;4.422;2023-04-24T08:38:27;10.45;72.76
68943;DHT22;60852;52.190;4.422;2023-04-24T08:40:52;10.30;71.78
68943;DHT22;60852;52.190;4.422;2023-04-24T08:43:21;10.30;71.82
68943;DHT22;60852;52.190;4.422;2023-04-24T08:45:47;10.48;72.43
68943;DHT22;60852;52.190;4.422;2023-04-24T08:48:13;10.51;71.79
68943;DHT22;60852;52.190;4.422;2023-04-24T08:50:40;10.58;71.67
68943;DHT22;60852;52.190;4.422;2023-04-24T08:53:08;10.48;71.59
68943;DHT22;60852;52.190;4.422;2023-04-24T08:55:34;10.38;73.23
68943;DHT22;60852;52.190;4.422;2023-04-24T08:58:01;10.24;73.21
68943;DHT22;60852;52.190;4.422;2023-04-24T09:00:28;10.16;73.96
68943;DHT22;60852;52.190;4.422;2023-04-24T09:02:55;10.13;75.01
68943;DHT22;60852;52.190;4.422;2023-04-24T09:05:22;10.10;74.64
68943;DHT22;60852;52.190;4.422;2023-04-24T09:07:56;10.20;73.67
68943;DHT22;60852;52.190;4.422;2023-04-24T09:10:24;10.31;71.47
68943;DHT22;60852;52.190;4.422;2023-04-24T09:12:51;10.42;71.67
68943;DHT22;60852;52.190;4.422;2023-04-24T09:15:18;10.45;69.95
68943;DHT22;60852;52.190;4.422;2023-04-24T09:17:44;10.41;69.75
68943;DHT22;60852;52.190;4.422;2023-04-24T09:20:10;10.45;69.56
68943;DHT22;60852;52.190;4.422;2023-04-24T09:22:36;10.62;69.88
68943;DHT22;60852;52.190;4.422;2023-04-24T09:25:08;10.79;69.88
68943;DHT22;60852;52.190;4.422;2023-04-24T09:27:34;10.85;69.00
68943;DHT22;60852;52.190;4.422;2023-04-24T09:30:01;10.69;68.94
68943;DHT22;60852;52.190;4.422;2023-04-24T09:32:27;10.67;68.88
68943;DHT22;60852;52.190;4.422;2023-04-24T09:35:13;10.58;74.12
68943;DHT22;60852;52.190;4.422;2023-04-24T09:37:45;10.30;75.36
68943;DHT22;60852;52.190;4.422;2023-04-24T09:40:14;10.23;77.05
68943;DHT22;60852;52.190;4.422;2023-04-24T09:42:53;10.25;77.20
68943;DHT22;60852;52.190;4.422;2023-04-24T09:45:19;10.23;77.00
68943;DHT22;60852;52.190;4.422;2023-04-24T09:47:45;10.34;75.99
68943;DHT22;60852;52.190;4.422;2023-04-24T09:50:12;10.54;76.38
68943;DHT22;60852;52.190;4.422;2023-04-24T09:52:58;10.81;75.39
68943;DHT22;60852;52.190;4.422;2023-04-24T09:55:24;11.02;72.83
68943;DHT22;60852;52.190;4.422;2023-04-24T10:00:30;11.09;70.02
68943;DHT22;60852;52.190;4.422;2023-04-24T10:08:06;11.84;67.69
68943;DHT22;60852;52.190;4.422;2023-04-24T10:10:33;11.67;67.91
68943;DHT22;60852;52.190;4.422;2023-04-24T10:13:00;11.75;68.72
68943;DHT22;60852;52.190;4.422;2023-04-24T10:15:27;11.91;68.36
68943;DHT22;60852;52.190;4.422;2023-04-24T10:17:53;11.80;67.88
68943;DHT22;60852;52.190;4.422;2023-04-24T10:20:25;11.81;69.24
68943;DHT22;60852;52.190;4.422;2023-04-24T10:22:52;11.87;68.27
68943;DHT22;60852;52.190;4.422;2023-04-24T10:25:20;11.92;67.60
68943;DHT22;60852;52.190;4.422;2023-04-24T10:27:47;11.75;67.79
68943;DHT22;60852;52.190;4.422;2023-04-24T10:30:13;11.80;68.55
68943;DHT22;60852;52.190;4.422;2023-04-24T10:32:39;11.77;68.52
68943;DHT22;60852;52.190;4.422;2023-04-24T10:35:07;11.66;69.17
68943;DHT22;60852;52.190;4.422;2023-04-24T10:37:45;11.70;69.15
68943;DHT22;60852;52.190;4.422;2023-04-24T10:40:12;11.75;68.20
68943;DHT22;60852;52.190;4.422;2023-04-24T10:42:41;11.84;69.06
68943;DHT22;60852;52.190;4.422;2023-04-24T10:45:19;11.82;69.13
68943;DHT22;60852;52.190;4.422;2023-04-24T10:48:07;11.77;69.77
68943;DHT22;60852;52.190;4.422;2023-04-24T10:50:51;11.47;72.54
68943;DHT22;60852;52.190;4.422;2023-04-24T10:55:51;11.40;74.77
68943;DHT22;60852;52.190;4.422;2023-04-24T10:58:22;11.13;74.72
68943;DHT22;60852;52.190;4.422;2023-04-24T11:00:57;11.05;76.45
68943;DHT22;60852;52.190;4.422;2023-04-24T11:05:59;10.95;76.32
68943;DHT22;60852;52.190;4.422;2023-04-24T11:11:02;11.18;73.61
68943;DHT22;60852;52.190;4.422;2023-04-24T11:16:32;11.43;72.02
68943;DHT22;60852;52.190;4.422;2023-04-24T11:19:02;11.44;72.69
68943;DHT22;60852;52.190;4.422;2023-04-24T11:22:00;11.36;72.75
68943;DHT22;60852;52.190;4.422;2023-04-24T11:27:14;11.77;71.06
68943;DHT22;60852;52.190;4.422;2023-04-24T11:29:45;11.87;70.89
68943;DHT22;60852;52.190;4.422;2023-04-24T11:32:29;11.80;68.89
68943;DHT22;60852;52.190;4.422;2023-04-24T11:35:00;11.91;69.03
68943;DHT22;60852;52.190;4.422;2023-04-24T11:37:29;11.98;68.64
68943;DHT22;60852;52.190;4.422;2023-04-24T11:39:58;12.04;68.33
68943;DHT22;60852;52.190;4.422;2023-04-24T11:42:24;12.12;68.32
68943;DHT22;60852;52.190;4.422;2023-04-24T11:44:54;11.97;67.78
68943;DHT22;60852;52.190;4.422;2023-04-24T11:47:29;11.85;67.01
68943;DHT22;60852;52.190;4.422;2023-04-24T11:49:55;11.88;68.98
68943;DHT22;60852;52.190;4.422;2023-04-24T11:52:20;11.85;68.58
68943;DHT22;60852;52.190;4.422;2023-04-24T11:54:50;11.91;68.69
68943;DHT22;60852;52.190;4.422;2023-04-24T11:57:18;11.56;69.32
68943;DHT22;60852;52.190;4.422;2023-04-24T11:59:44;11.37;71.59
68943;DHT22;60852;52.190;4.422;2023-04-24T12:02:26;11.36;70.15
68943;DHT22;60852;52.190;4.422;2023-04-24T12:04:55;11.24;68.04
68943;DHT22;60852;52.190;4.422;2023-04-24T12:07:22;11.33;68.38
68943;DHT22;60852;52.190;4.422;2023-04-24T12:09:58;11.46;67.87
68943;DHT22;60852;52.190;4.422;2023-04-24T12:12:27;11.74;68.51
68943;DHT22;60852;52.190;4.422;2023-04-24T12:14:55;11.88;67.16
68943;DHT22;60852;52.190;4.422;2023-04-24T12:17:32;11.91;65.01
68943;DHT22;60852;52.190;4.422;2023-04-24T12:20:02;12.05;65.79
68943;DHT22;60852;52.190;4.422;2023-04-24T12:25:12;12.28;67.19
68943;DHT22;60852;52.190;4.422;2023-04-24T12:27:37;12.24;65.46
68943;DHT22;60852;52.190;4.422;2023-04-24T12:30:05;12.17;64.47
68943;DHT22;60852;52.190;4.422;2023-04-24T12:32:31;12.17;64.76
68943;DHT22;60852;52.190;4.422;2023-04-24T12:34:57;12.12;65.21
68943;DHT22;60852;52.190;4.422;2023-04-24T12:37:32;12.11;64.77
68943;DHT22;60852;52.190;4.422;2023-04-24T12:40:11;12.24;64.67
68943;DHT22;60852;52.190;4.422;2023-04-24T12:42:46;12.29;64.45
68943;DHT22;60852;52.190;4.422;2023-04-24T12:45:12;12.40;64.60
68943;DHT22;60852;52.190;4.422;2023-04-24T12:47:39;12.43;63.94
68943;DHT22;60852;52.190;4.422;2023-04-24T12:50:07;12.55;62.57
68943;DHT22;60852;52.190;4.422;2023-04-24T12:52:33;12.55;62.82
68943;DHT22;60852;52.190;4.422;2023-04-24T12:55:00;12.32;63.73
68943;DHT22;60852;52.190;4.422;2023-04-24T12:57:28;12.38;64.13
68943;DHT22;60852;52.190;4.422;2023-04-24T12:59:58;12.48;64.31
68943;DHT22;60852;52.190;4.422;2023-04-24T13:02:24;12.39;64.13
68943;DHT22;60852;52.190;4.422;2023-04-24T13:04:50;12.49;63.52
68943;DHT22;60852;52.190;4.422;2023-04-24T13:07:17;12.61;64.46
68943;DHT22;60852;52.190;4.422;2023-04-24T13:09:43;12.70;63.32
68943;DHT22;60852;52.190;4.422;2023-04-24T13:12:10;12.70;63.27
68943;DHT22;60852;52.190;4.422;2023-04-24T13:14:36;12.72;62.24
68943;DHT22;60852;52.190;4.422;2023-04-24T13:17:03;12.69;62.98
68943;DHT22;60852;52.190;4.422;2023-04-24T13:19:28;12.69;63.55
68943;DHT22;60852;52.190;4.422;2023-04-24T13:21:55;12.63;63.47
68943;DHT22;60852;52.190;4.422;2023-04-24T13:24:25;12.61;64.21
68943;DHT22;60852;52.190;4.422;2023-04-24T13:26:54;12.70;63.57
68943;DHT22;60852;52.190;4.422;2023-04-24T13:29:19;12.64;64.31
68943;DHT22;60852;52.190;4.422;2023-04-24T13:31:50;12.69;64.54
68943;DHT22;60852;52.190;4.422;2023-04-24T13:34:17;12.52;63.66
68943;DHT22;60852;52.190;4.422;2023-04-24T13:36:43;12.12;65.44
68943;DHT22;60852;52.190;4.422;2023-04-24T13:39:08;12.04;66.73
68943;DHT22;60852;52.190;4.422;2023-04-24T13:41:34;12.08;64.10
68943;DHT22;60852;52.190;4.422;2023-04-24T13:44:01;12.04;64.24
68943;DHT22;60852;52.190;4.422;2023-04-24T13:46:27;12.17;64.19
68943;DHT22;60852;52.190;4.422;2023-04-24T13:48:52;11.99;64.49
68943;DHT22;60852;52.190;4.422;2023-04-24T13:51:18;11.90;66.04
68943;DHT22;60852;52.190;4.422;2023-04-24T13:53:43;11.90;66.17
68943;DHT22;60852;52.190;4.422;2023-04-24T13:56:09;12.02;66.77
68943;DHT22;60852;52.190;4.422;2023-04-24T13:58:35;11.91;65.83
68943;DHT22;60852;52.190;4.422;2023-04-24T14:01:02;11.73;66.51
68943;DHT22;60852;52.190;4.422;2023-04-24T14:03:28;11.88;67.25
68943;DHT22;60852;52.190;4.422;2023-04-24T14:05:54;11.95;66.00
68943;DHT22;60852;52.190;4.422;2023-04-24T14:08:19;12.11;65.72
68943;DHT22;60852;52.190;4.422;2023-04-24T14:10:45;12.14;65.42
68943;DHT22;60852;52.190;4.422;2023-04-24T14:13:11;12.05;64.99
68943;DHT22;60852;52.190;4.422;2023-04-24T14:15:36;11.99;66.29
68943;DHT22;60852;52.190;4.422;2023-04-24T14:18:02;11.97;66.20
68943;DHT22;60852;52.190;4.422;2023-04-24T14:20:28;12.09;65.07
68943;DHT22;60852;52.190;4.422;2023-04-24T14:22:53;11.98;65.20
68943;DHT22;60852;52.190;4.422;2023-04-24T14:25:19;11.98;66.61
68943;DHT22;60852;52.190;4.422;2023-04-24T14:27:44;11.81;66.55
68943;DHT22;60852;52.190;4.422;2023-04-24T14:30:11;11.59;65.95
68943;DHT22;60852;52.190;4.422;2023-04-24T14:32:39;11.61;65.51
68943;DHT22;60852;52.190;4.422;2023-04-24T14:35:06;11.78;64.41
68943;DHT22;60852;52.190;4.422;2023-04-24T14:37:31;11.91;62.70
68943;DHT22;60852;52.190;4.422;2023-04-24T14:39:57;11.80;63.01
68943;DHT22;60852;52.190;4.422;2023-04-24T14:42:22;11.70;64.59
68943;DHT22;60852;52.190;4.422;2023-04-24T14:44:48;11.60;65.49
68943;DHT22;60852;52.190;4.422;2023-04-24T14:47:13;11.57;64.90
68943;DHT22;60852;52.190;4.422;2023-04-24T14:49:39;11.37;63.45
68943;DHT22;60852;52.190;4.422;2023-04-24T14:52:04;11.44;63.98
68943;DHT22;60852;52.190;4.422;2023-04-24T14:54:30;11.40;64.39
68943;DHT22;60852;52.190;4.422;2023-04-24T14:56:55;11.40;64.53
68943;DHT22;60852;52.190;4.422;2023-04-24T14:59:22;11.34;64.73
68943;DHT22;60852;52.190;4.422;2023-04-24T15:01:47;11.40;64.77
68943;DHT22;60852;52.190;4.422;2023-04-24T15:04:13;11.50;64.50
68943;DHT22;60852;52.190;4.422;2023-04-24T15:06:38;11.63;65.14
68943;DHT22;60852;52.190;4.422;2023-04-24T15:09:04;11.56;63.78
68943;DHT22;60852;52.190;4.422;2023-04-24T15:11:29;11.51;63.70
68943;DHT22;60852;52.190;4.422;2023-04-24T15:13:55;11.46;64.50
68943;DHT22;60852;52.190;4.422;2023-04-24T15:16:21;11.22;65.62
68943;DHT22;60852;52.190;4.422;2023-04-24T15:18:47;11.31;65.28
68943;DHT22;60852;52.190;4.422;2023-04-24T15:21:12;11.23;65.89
68943;DHT22;60852;52.190;4.422;2023-04-24T15:23:38;11.34;65.96
68943;DHT22;60852;52.190;4.422;2023-04-24T15:26:03;11.39;64.25
68943;DHT22;60852;52.190;4.422;2023-04-24T15:28:29;11.43;64.43
68943;DHT22;60852;52.190;4.422;2023-04-24T15:30:55;11.34;63.01
68943;DHT22;60852;52.190;4.422;2023-04-24T15:33:20;11.31;63.16
68943;DHT22;60852;52.190;4.422;2023-04-24T15:35:46;11.37;63.87
68943;DHT22;60852;52.190;4.422;2023-04-24T15:38:13;11.37;64.66
68943;DHT22;60852;52.190;4.422;2023-04-24T15:40:39;11.31;64.69
68943;DHT22;60852;52.190;4.422;2023-04-24T15:43:04;11.30;64.61
68943;DHT22;60852;52.190;4.422;2023-04-24T15:45:30;11.39;65.04
68943;DHT22;60852;52.190;4.422;2023-04-24T15:47:55;11.41;65.43
68943;DHT22;60852;52.190;4.422;2023-04-24T15:50:21;11.37;66.13
68943;DHT22;60852;52.190;4.422;2023-04-24T15:52:46;11.27;66.03
68943;DHT22;60852;52.190;4.422;2023-04-24T15:55:12;11.30;66.22